Pointe A La Hache, LA (70082)

4:03 PM CDT on April 21, 2015 (GMT -0500)
Deer Range | | Change Station
CLOSE
Current Station
Personal Weather Station
Location: Port Sulphur, LA
Elevation: 10 ft
Nearby Weather Stations

Elev 10 ft 29.60 °N, 89.91 °W | Updated 2 seconds ago

Partly Cloudy
Partly Cloudy
73.0 °F
Feels Like 77 °F
N
8.7
Wind Variable Wind from NE
Gusts 12.3 mph

Today
High -- | Low -- °F
--% Chance of Precip.
Yesterday
High -- | Low -- °F
Precip. -- in
6:26 AM 7:29 PM
Waxing Crescent, 12% visible
Pressure 29.99 in
Visibility 10.0 miles
Clouds Few 4000 ft
Few 25000 ft
Heat Index 77 °F
Dew Point 53 °F
Humidity 50%
Rainfall 0.00 in
Snow Depth Not available.
UV 4.0 out of 12
Pollen 8.20 out of 12
Air Quality Not available.
Flu Activity Local Activity
METAR KNBG 212055Z 10005KT 10SM FEW040 FEW250 24/09 A2999 RMK AO2 SLP155 T02440094 56014 $

More Conditions Fewer Conditions

Pressure 29.99 in
Visibility 10.0 miles
Clouds Few 4000 ft
Few 25000 ft
Heat Index 77 °F
Dew Point 53 °F
Humidity 50%
Rainfall 0.00 in
Snow Depth Not available.
UV 4.0 out of 12
Pollen 8.20 out of 12
Air Quality Not available.
Flu Activity Local Activity
METAR KNBG 212055Z 10005KT 10SM FEW040 FEW250 24/09 A2999 RMK AO2 SLP155 T02440094 56014 $

More Conditions Fewer Conditions

10-Day Weather Forecast

Almanac

Astronomy

Apr. 21, 2015 Rise Set
Actual Time
Civil Twilight
Nautical Twilight
Astronomical Twilight
Moon
Length of Visible Light
Length of Day
Tomorrow will be .
, % of the Moon is Illuminated

Today's Extremes

State Highs State Lows

Community

WunderPhotos

Upload Photos

1,815,540 photos uploaded!

WunderBlogs® & News

Nearby

Air Quality

  Air Quality AQ Index Pollutant
Not available.

Snow Depth

Station Depth Elevation

Earthquake Activity

City Distance Mag. Time & Date
Minimum magnitude displayed is 2.5.

Coastal Water Temperatures

Place Temperature

Stations

Nearby Weather Stations

Station Location Temp. Windchill Dew Point Humidity Wind Precip. Elev Updated Type